sensor_id;sensor_type;location;lat;lon;timestamp;temperature;humidity
15617;DHT22;7908;51.688;7.130;2022-10-03T00:02:02;8.50;99.90
15617;DHT22;7908;51.688;7.130;2022-10-03T00:04:49;8.50;99.90
15617;DHT22;7908;51.688;7.130;2022-10-03T00:07:34;8.50;99.90
15617;DHT22;7908;51.688;7.130;2022-10-03T00:10:14;8.50;99.90
15617;DHT22;7908;51.688;7.130;2022-10-03T00:12:51;8.50;99.90
15617;DHT22;7908;51.688;7.130;2022-10-03T00:15:33;8.50;99.90
15617;DHT22;7908;51.688;7.130;2022-10-03T00:18:13;8.50;99.90
15617;DHT22;7908;51.688;7.130;2022-10-03T00:21:00;8.50;99.90
15617;DHT22;7908;51.688;7.130;2022-10-03T00:23:38;8.40;99.90
15617;DHT22;7908;51.688;7.130;2022-10-03T00:26:19;8.40;99.90
15617;DHT22;7908;51.688;7.130;2022-10-03T00:32:08;8.30;99.90
15617;DHT22;7908;51.688;7.130;2022-10-03T00:34:52;8.30;99.90
15617;DHT22;7908;51.688;7.130;2022-10-03T00:37:30;8.30;99.90
15617;DHT22;7908;51.688;7.130;2022-10-03T00:40:23;8.30;99.90
15617;DHT22;7908;51.688;7.130;2022-10-03T00:43:15;8.30;99.90
15617;DHT22;7908;51.688;7.130;2022-10-03T00:52:16;8.30;99.90
15617;DHT22;7908;51.688;7.130;2022-10-03T00:54:57;8.20;99.90
15617;DHT22;7908;51.688;7.130;2022-10-03T01:00:34;8.20;99.90
15617;DHT22;7908;51.688;7.130;2022-10-03T01:03:31;8.20;99.90
15617;DHT22;7908;51.688;7.130;2022-10-03T01:06:16;8.20;99.90
15617;DHT22;7908;51.688;7.130;2022-10-03T01:09:17;8.20;99.90
15617;DHT22;7908;51.688;7.130;2022-10-03T01:11:55;8.20;99.90
15617;DHT22;7908;51.688;7.130;2022-10-03T01:17:33;8.10;99.90
15617;DHT22;7908;51.688;7.130;2022-10-03T01:20:21;8.10;99.90
15617;DHT22;7908;51.688;7.130;2022-10-03T01:23:25;8.10;99.90
15617;DHT22;7908;51.688;7.130;2022-10-03T01:26:10;8.00;99.90
15617;DHT22;7908;51.688;7.130;2022-10-03T01:28:48;8.00;99.90
15617;DHT22;7908;51.688;7.130;2022-10-03T01:31:41;8.00;99.90
15617;DHT22;7908;51.688;7.130;2022-10-03T01:34:19;7.90;99.90
15617;DHT22;7908;51.688;7.130;2022-10-03T01:37:03;8.00;99.90
15617;DHT22;7908;51.688;7.130;2022-10-03T01:39:41;7.90;99.90
15617;DHT22;7908;51.688;7.130;2022-10-03T01:42:18;7.90;99.90
15617;DHT22;7908;51.688;7.130;2022-10-03T01:45:03;7.90;99.90
15617;DHT22;7908;51.688;7.130;2022-10-03T01:47:45;7.90;99.90
15617;DHT22;7908;51.688;7.130;2022-10-03T01:50:25;7.90;99.90
15617;DHT22;7908;51.688;7.130;2022-10-03T01:53:01;7.80;99.90
15617;DHT22;7908;51.688;7.130;2022-10-03T01:55:39;7.80;99.90
15617;DHT22;7908;51.688;7.130;2022-10-03T01:58:15;7.80;99.90
15617;DHT22;7908;51.688;7.130;2022-10-03T02:00:54;7.80;99.90
15617;DHT22;7908;51.688;7.130;2022-10-03T02:03:27;7.80;99.90
15617;DHT22;7908;51.688;7.130;2022-10-03T02:06:05;7.70;99.90
15617;DHT22;7908;51.688;7.130;2022-10-03T02:08:46;7.70;99.90
15617;DHT22;7908;51.688;7.130;2022-10-03T02:11:30;7.70;99.90
15617;DHT22;7908;51.688;7.130;2022-10-03T02:14:12;7.70;99.90
15617;DHT22;7908;51.688;7.130;2022-10-03T02:16:54;7.70;99.90
15617;DHT22;7908;51.688;7.130;2022-10-03T02:19:27;7.60;99.90
15617;DHT22;7908;51.688;7.130;2022-10-03T02:21:58;7.60;99.90
15617;DHT22;7908;51.688;7.130;2022-10-03T02:24:39;7.60;99.90
15617;DHT22;7908;51.688;7.130;2022-10-03T02:30:12;7.50;99.90
15617;DHT22;7908;51.688;7.130;2022-10-03T02:48:28;7.40;99.90
15617;DHT22;7908;51.688;7.130;2022-10-03T02:57:49;7.30;99.90
15617;DHT22;7908;51.688;7.130;2022-10-03T03:00:34;7.30;99.90
15617;DHT22;7908;51.688;7.130;2022-10-03T03:03:36;7.30;99.90
15617;DHT22;7908;51.688;7.130;2022-10-03T03:12:54;7.30;99.90
15617;DHT22;7908;51.688;7.130;2022-10-03T03:18:35;7.30;99.90
15617;DHT22;7908;51.688;7.130;2022-10-03T03:21:14;7.30;99.90
15617;DHT22;7908;51.688;7.130;2022-10-03T03:27:12;7.30;99.90
15617;DHT22;7908;51.688;7.130;2022-10-03T03:29:52;7.30;99.90
15617;DHT22;7908;51.688;7.130;2022-10-03T03:32:32;7.20;99.90
15617;DHT22;7908;51.688;7.130;2022-10-03T03:35:11;7.20;99.90
15617;DHT22;7908;51.688;7.130;2022-10-03T03:37:47;7.20;99.90
15617;DHT22;7908;51.688;7.130;2022-10-03T03:40:30;7.20;99.90
15617;DHT22;7908;51.688;7.130;2022-10-03T03:43:16;7.20;99.90
15617;DHT22;7908;51.688;7.130;2022-10-03T03:45:58;7.10;99.90
15617;DHT22;7908;51.688;7.130;2022-10-03T03:48:52;7.10;99.90
15617;DHT22;7908;51.688;7.130;2022-10-03T03:51:33;7.10;99.90
15617;DHT22;7908;51.688;7.130;2022-10-03T03:54:37;7.00;99.90
15617;DHT22;7908;51.688;7.130;2022-10-03T03:57:36;7.00;99.90
15617;DHT22;7908;51.688;7.130;2022-10-03T04:00:13;7.00;99.90
15617;DHT22;7908;51.688;7.130;2022-10-03T04:03:00;7.00;99.90
15617;DHT22;7908;51.688;7.130;2022-10-03T04:05:46;7.00;99.90
15617;DHT22;7908;51.688;7.130;2022-10-03T04:08:32;7.00;99.90
15617;DHT22;7908;51.688;7.130;2022-10-03T04:11:14;6.90;99.90
15617;DHT22;7908;51.688;7.130;2022-10-03T04:14:17;6.90;99.90
15617;DHT22;7908;51.688;7.130;2022-10-03T04:17:11;6.90;99.90
15617;DHT22;7908;51.688;7.130;2022-10-03T04:20:26;6.90;99.90
15617;DHT22;7908;51.688;7.130;2022-10-03T04:23:12;6.90;99.90
15617;DHT22;7908;51.688;7.130;2022-10-03T04:25:51;6.90;99.90
15617;DHT22;7908;51.688;7.130;2022-10-03T04:28:34;6.90;99.90
15617;DHT22;7908;51.688;7.130;2022-10-03T04:31:30;6.80;99.90
15617;DHT22;7908;51.688;7.130;2022-10-03T04:34:18;6.80;99.90
15617;DHT22;7908;51.688;7.130;2022-10-03T04:37:00;6.80;99.90
15617;DHT22;7908;51.688;7.130;2022-10-03T04:39:38;6.80;99.90
15617;DHT22;7908;51.688;7.130;2022-10-03T04:42:15;6.70;99.90
15617;DHT22;7908;51.688;7.130;2022-10-03T04:45:02;6.70;99.90
15617;DHT22;7908;51.688;7.130;2022-10-03T04:47:34;6.70;99.90
15617;DHT22;7908;51.688;7.130;2022-10-03T04:50:32;6.60;99.90
15617;DHT22;7908;51.688;7.130;2022-10-03T04:53:16;6.60;99.90
15617;DHT22;7908;51.688;7.130;2022-10-03T04:55:49;6.60;99.90
15617;DHT22;7908;51.688;7.130;2022-10-03T04:58:29;6.60;99.90
15617;DHT22;7908;51.688;7.130;2022-10-03T05:01:09;6.60;99.90
15617;DHT22;7908;51.688;7.130;2022-10-03T05:03:52;6.60;99.90
15617;DHT22;7908;51.688;7.130;2022-10-03T05:06:35;6.60;99.90
15617;DHT22;7908;51.688;7.130;2022-10-03T05:09:19;6.60;99.90
15617;DHT22;7908;51.688;7.130;2022-10-03T05:11:58;6.60;99.90
15617;DHT22;7908;51.688;7.130;2022-10-03T05:14:56;6.60;99.90
15617;DHT22;7908;51.688;7.130;2022-10-03T05:17:34;6.60;99.90
15617;DHT22;7908;51.688;7.130;2022-10-03T05:20:24;6.60;99.90
15617;DHT22;7908;51.688;7.130;2022-10-03T05:23:10;6.60;99.90
15617;DHT22;7908;51.688;7.130;2022-10-03T05:25:48;6.60;99.90
15617;DHT22;7908;51.688;7.130;2022-10-03T05:28:28;6.60;99.90
15617;DHT22;7908;51.688;7.130;2022-10-03T05:31:11;6.60;99.90
15617;DHT22;7908;51.688;7.130;2022-10-03T05:33:47;6.60;99.90
15617;DHT22;7908;51.688;7.130;2022-10-03T05:36:29;6.60;99.90
15617;DHT22;7908;51.688;7.130;2022-10-03T05:39:22;6.60;99.90
15617;DHT22;7908;51.688;7.130;2022-10-03T05:41:55;6.50;99.90
15617;DHT22;7908;51.688;7.130;2022-10-03T05:44:59;6.50;99.90
15617;DHT22;7908;51.688;7.130;2022-10-03T05:47:31;6.40;99.90
15617;DHT22;7908;51.688;7.130;2022-10-03T05:50:41;6.40;99.90
15617;DHT22;7908;51.688;7.130;2022-10-03T05:53:41;6.30;99.90
15617;DHT22;7908;51.688;7.130;2022-10-03T05:56:26;6.20;99.90
15617;DHT22;7908;51.688;7.130;2022-10-03T05:59:23;6.20;99.90
15617;DHT22;7908;51.688;7.130;2022-10-03T06:02:17;6.20;99.90
15617;DHT22;7908;51.688;7.130;2022-10-03T06:05:11;6.10;99.90
15617;DHT22;7908;51.688;7.130;2022-10-03T06:07:57;6.10;99.90
15617;DHT22;7908;51.688;7.130;2022-10-03T06:10:50;6.10;99.90
15617;DHT22;7908;51.688;7.130;2022-10-03T06:13:36;6.20;99.90
15617;DHT22;7908;51.688;7.130;2022-10-03T06:16:22;6.20;99.90
15617;DHT22;7908;51.688;7.130;2022-10-03T06:19:13;6.30;99.90
15617;DHT22;7908;51.688;7.130;2022-10-03T06:22:17;6.30;99.90
15617;DHT22;7908;51.688;7.130;2022-10-03T06:34:54;6.60;99.90
15617;DHT22;7908;51.688;7.130;2022-10-03T06:37:48;6.60;99.90
15617;DHT22;7908;51.688;7.130;2022-10-03T06:41:01;6.60;99.90
15617;DHT22;7908;51.688;7.130;2022-10-03T06:43:44;6.50;99.90
15617;DHT22;7908;51.688;7.130;2022-10-03T06:46:47;6.60;99.90
15617;DHT22;7908;51.688;7.130;2022-10-03T06:52:35;6.60;99.90
15617;DHT22;7908;51.688;7.130;2022-10-03T06:55:46;6.70;99.90
15617;DHT22;7908;51.688;7.130;2022-10-03T06:58:39;6.70;99.90
15617;DHT22;7908;51.688;7.130;2022-10-03T07:01:42;6.90;99.90
15617;DHT22;7908;51.688;7.130;2022-10-03T07:04:31;6.90;99.90
15617;DHT22;7908;51.688;7.130;2022-10-03T07:10:24;7.20;99.90
15617;DHT22;7908;51.688;7.130;2022-10-03T07:16:25;7.60;99.90
15617;DHT22;7908;51.688;7.130;2022-10-03T07:19:31;7.90;99.90
15617;DHT22;7908;51.688;7.130;2022-10-03T07:22:30;8.10;99.90
15617;DHT22;7908;51.688;7.130;2022-10-03T07:28:33;8.60;99.90
15617;DHT22;7908;51.688;7.130;2022-10-03T07:31:18;8.70;99.90
15617;DHT22;7908;51.688;7.130;2022-10-03T07:34:36;8.70;99.90
15617;DHT22;7908;51.688;7.130;2022-10-03T07:37:27;8.90;99.90
15617;DHT22;7908;51.688;7.130;2022-10-03T07:43:44;9.20;99.90
15617;DHT22;7908;51.688;7.130;2022-10-03T07:49:28;9.70;99.90
15617;DHT22;7908;51.688;7.130;2022-10-03T07:52:41;9.90;99.90
15617;DHT22;7908;51.688;7.130;2022-10-03T07:55:30;10.10;99.90
15617;DHT22;7908;51.688;7.130;2022-10-03T07:58:20;10.30;99.90
15617;DHT22;7908;51.688;7.130;2022-10-03T08:01:08;10.40;99.90
15617;DHT22;7908;51.688;7.130;2022-10-03T08:06:54;10.50;99.90
15617;DHT22;7908;51.688;7.130;2022-10-03T08:09:49;10.70;99.90
15617;DHT22;7908;51.688;7.130;2022-10-03T08:12:40;10.80;99.90
15617;DHT22;7908;51.688;7.130;2022-10-03T08:15:22;10.90;99.90
15617;DHT22;7908;51.688;7.130;2022-10-03T08:18:26;11.00;99.90
15617;DHT22;7908;51.688;7.130;2022-10-03T08:20:59;11.10;99.90
15617;DHT22;7908;51.688;7.130;2022-10-03T08:23:55;11.30;99.90
15617;DHT22;7908;51.688;7.130;2022-10-03T08:26:45;11.30;99.90
15617;DHT22;7908;51.688;7.130;2022-10-03T08:29:33;11.40;99.90
15617;DHT22;7908;51.688;7.130;2022-10-03T08:35:28;11.40;99.90
15617;DHT22;7908;51.688;7.130;2022-10-03T08:38:31;11.40;99.90
15617;DHT22;7908;51.688;7.130;2022-10-03T08:44:46;11.50;99.90
15617;DHT22;7908;51.688;7.130;2022-10-03T08:50:44;11.70;99.90
15617;DHT22;7908;51.688;7.130;2022-10-03T08:53:47;11.80;99.90
15617;DHT22;7908;51.688;7.130;2022-10-03T08:56:26;12.10;99.90
15617;DHT22;7908;51.688;7.130;2022-10-03T08:59:38;12.30;99.90
15617;DHT22;7908;51.688;7.130;2022-10-03T09:06:05;12.50;99.90
15617;DHT22;7908;51.688;7.130;2022-10-03T09:08:50;12.50;99.90
15617;DHT22;7908;51.688;7.130;2022-10-03T09:11:36;12.60;99.90
15617;DHT22;7908;51.688;7.130;2022-10-03T09:14:48;12.70;99.90
15617;DHT22;7908;51.688;7.130;2022-10-03T09:17:48;12.80;99.90
15617;DHT22;7908;51.688;7.130;2022-10-03T09:24:17;12.90;99.90
15617;DHT22;7908;51.688;7.130;2022-10-03T09:30:09;13.00;99.90
15617;DHT22;7908;51.688;7.130;2022-10-03T09:33:27;13.00;99.90
15617;DHT22;7908;51.688;7.130;2022-10-03T09:36:33;13.00;99.90
15617;DHT22;7908;51.688;7.130;2022-10-03T09:39:55;13.10;99.90
15617;DHT22;7908;51.688;7.130;2022-10-03T09:42:58;13.20;99.90
15617;DHT22;7908;51.688;7.130;2022-10-03T09:48:40;13.30;99.90
15617;DHT22;7908;51.688;7.130;2022-10-03T09:51:45;13.30;99.90
15617;DHT22;7908;51.688;7.130;2022-10-03T09:57:59;13.50;99.90
15617;DHT22;7908;51.688;7.130;2022-10-03T10:00:47;13.50;99.90
15617;DHT22;7908;51.688;7.130;2022-10-03T10:26:03;14.00;99.90
15617;DHT22;7908;51.688;7.130;2022-10-03T10:35:25;14.10;99.90
15617;DHT22;7908;51.688;7.130;2022-10-03T10:38:22;14.20;99.90
15617;DHT22;7908;51.688;7.130;2022-10-03T10:47:46;14.50;99.90
15617;DHT22;7908;51.688;7.130;2022-10-03T11:10:08;15.10;99.90
15617;DHT22;7908;51.688;7.130;2022-10-03T11:13:18;15.20;99.90
15617;DHT22;7908;51.688;7.130;2022-10-03T11:19:32;15.30;99.90
15617;DHT22;7908;51.688;7.130;2022-10-03T11:37:58;15.50;99.90
15617;DHT22;7908;51.688;7.130;2022-10-03T11:40:50;15.50;99.90
15617;DHT22;7908;51.688;7.130;2022-10-03T11:43:44;15.50;99.90
15617;DHT22;7908;51.688;7.130;2022-10-03T11:46:26;15.60;99.90
15617;DHT22;7908;51.688;7.130;2022-10-03T11:49:06;15.60;99.90
15617;DHT22;7908;51.688;7.130;2022-10-03T11:51:45;15.70;99.90
15617;DHT22;7908;51.688;7.130;2022-10-03T11:54:22;15.70;99.90
15617;DHT22;7908;51.688;7.130;2022-10-03T11:57:01;15.80;99.90
15617;DHT22;7908;51.688;7.130;2022-10-03T11:59:53;15.80;99.90
15617;DHT22;7908;51.688;7.130;2022-10-03T12:02:46;15.90;99.90
15617;DHT22;7908;51.688;7.130;2022-10-03T12:05:26;16.00;99.90
15617;DHT22;7908;51.688;7.130;2022-10-03T12:08:11;16.00;99.90
15617;DHT22;7908;51.688;7.130;2022-10-03T12:11:06;16.00;99.90
15617;DHT22;7908;51.688;7.130;2022-10-03T12:13:43;16.10;99.90
15617;DHT22;7908;51.688;7.130;2022-10-03T12:16:19;16.10;99.90
15617;DHT22;7908;51.688;7.130;2022-10-03T12:18:56;16.20;99.90
15617;DHT22;7908;51.688;7.130;2022-10-03T12:21:36;16.30;99.90
15617;DHT22;7908;51.688;7.130;2022-10-03T12:24:22;16.40;99.90
15617;DHT22;7908;51.688;7.130;2022-10-03T12:27:02;16.30;99.90
15617;DHT22;7908;51.688;7.130;2022-10-03T12:29:39;16.30;99.90
15617;DHT22;7908;51.688;7.130;2022-10-03T12:32:22;16.30;99.90
15617;DHT22;7908;51.688;7.130;2022-10-03T12:35:06;16.40;99.90
15617;DHT22;7908;51.688;7.130;2022-10-03T12:37:47;16.30;99.90
15617;DHT22;7908;51.688;7.130;2022-10-03T12:40:27;16.30;99.90
15617;DHT22;7908;51.688;7.130;2022-10-03T12:43:04;16.30;99.90
15617;DHT22;7908;51.688;7.130;2022-10-03T12:45:40;16.30;99.90
15617;DHT22;7908;51.688;7.130;2022-10-03T12:48:25;16.30;99.90
15617;DHT22;7908;51.688;7.130;2022-10-03T12:51:05;16.30;99.90
15617;DHT22;7908;51.688;7.130;2022-10-03T12:53:47;16.40;99.90
15617;DHT22;7908;51.688;7.130;2022-10-03T12:56:25;16.50;99.90
15617;DHT22;7908;51.688;7.130;2022-10-03T12:59:13;16.50;99.90
15617;DHT22;7908;51.688;7.130;2022-10-03T13:02:02;16.60;99.90
15617;DHT22;7908;51.688;7.130;2022-10-03T13:04:41;16.60;99.90
15617;DHT22;7908;51.688;7.130;2022-10-03T13:07:24;16.70;99.90
15617;DHT22;7908;51.688;7.130;2022-10-03T13:10:21;16.80;99.90
15617;DHT22;7908;51.688;7.130;2022-10-03T13:13:06;17.00;99.90
15617;DHT22;7908;51.688;7.130;2022-10-03T13:15:48;17.10;99.90
15617;DHT22;7908;51.688;7.130;2022-10-03T13:18:43;17.10;99.90
15617;DHT22;7908;51.688;7.130;2022-10-03T13:21:17;17.10;99.90
15617;DHT22;7908;51.688;7.130;2022-10-03T13:24:17;17.00;99.90
15617;DHT22;7908;51.688;7.130;2022-10-03T13:26:59;16.90;99.90
15617;DHT22;7908;51.688;7.130;2022-10-03T13:29:39;16.90;99.90
15617;DHT22;7908;51.688;7.130;2022-10-03T13:32:16;16.90;99.90
15617;DHT22;7908;51.688;7.130;2022-10-03T13:35:06;16.80;99.90
15617;DHT22;7908;51.688;7.130;2022-10-03T13:38:18;16.80;99.90
15617;DHT22;7908;51.688;7.130;2022-10-03T13:40:58;16.90;99.90
15617;DHT22;7908;51.688;7.130;2022-10-03T13:43:37;16.90;99.90
15617;DHT22;7908;51.688;7.130;2022-10-03T13:46:14;16.90;99.90
15617;DHT22;7908;51.688;7.130;2022-10-03T13:48:56;16.90;99.90
15617;DHT22;7908;51.688;7.130;2022-10-03T13:51:40;16.90;99.90
15617;DHT22;7908;51.688;7.130;2022-10-03T13:54:17;17.00;99.90
15617;DHT22;7908;51.688;7.130;2022-10-03T13:56:54;17.00;99.90
15617;DHT22;7908;51.688;7.130;2022-10-03T13:59:48;17.10;99.90
15617;DHT22;7908;51.688;7.130;2022-10-03T14:02:41;17.10;99.90
15617;DHT22;7908;51.688;7.130;2022-10-03T14:05:40;17.10;99.90
15617;DHT22;7908;51.688;7.130;2022-10-03T14:08:28;17.10;99.90
15617;DHT22;7908;51.688;7.130;2022-10-03T14:14:09;17.20;99.90
15617;DHT22;7908;51.688;7.130;2022-10-03T14:16:47;17.10;99.90
15617;DHT22;7908;51.688;7.130;2022-10-03T14:19:29;17.10;99.90
15617;DHT22;7908;51.688;7.130;2022-10-03T14:22:22;17.10;99.90
15617;DHT22;7908;51.688;7.130;2022-10-03T14:25:13;17.10;99.90
15617;DHT22;7908;51.688;7.130;2022-10-03T14:27:53;17.00;99.90
15617;DHT22;7908;51.688;7.130;2022-10-03T14:30:31;17.00;99.90
15617;DHT22;7908;51.688;7.130;2022-10-03T14:33:15;17.00;99.90
15617;DHT22;7908;51.688;7.130;2022-10-03T14:35:58;17.00;99.90
15617;DHT22;7908;51.688;7.130;2022-10-03T14:38:59;17.00;99.90
15617;DHT22;7908;51.688;7.130;2022-10-03T14:41:44;17.10;99.90
15617;DHT22;7908;51.688;7.130;2022-10-03T14:44:17;17.10;99.90
15617;DHT22;7908;51.688;7.130;2022-10-03T14:46:51;17.00;99.90
15617;DHT22;7908;51.688;7.130;2022-10-03T14:49:26;17.00;99.90
15617;DHT22;7908;51.688;7.130;2022-10-03T14:52:26;16.90;99.90
15617;DHT22;7908;51.688;7.130;2022-10-03T14:55:07;16.80;99.90
15617;DHT22;7908;51.688;7.130;2022-10-03T14:57:44;16.80;99.90
15617;DHT22;7908;51.688;7.130;2022-10-03T15:00:41;16.80;99.90
15617;DHT22;7908;51.688;7.130;2022-10-03T15:03:27;16.70;99.90
15617;DHT22;7908;51.688;7.130;2022-10-03T15:06:17;16.60;99.90
15617;DHT22;7908;51.688;7.130;2022-10-03T15:08:51;16.60;99.90
15617;DHT22;7908;51.688;7.130;2022-10-03T15:11:24;16.50;99.90
15617;DHT22;7908;51.688;7.130;2022-10-03T15:13:58;16.40;99.90
15617;DHT22;7908;51.688;7.130;2022-10-03T15:16:31;16.40;99.90
15617;DHT22;7908;51.688;7.130;2022-10-03T15:19:07;16.40;99.90
15617;DHT22;7908;51.688;7.130;2022-10-03T15:21:41;16.40;99.90
15617;DHT22;7908;51.688;7.130;2022-10-03T15:24:19;16.40;99.90
15617;DHT22;7908;51.688;7.130;2022-10-03T15:26:56;16.40;99.90
15617;DHT22;7908;51.688;7.130;2022-10-03T15:29:28;16.40;99.90
15617;DHT22;7908;51.688;7.130;2022-10-03T15:32:03;16.40;99.90
15617;DHT22;7908;51.688;7.130;2022-10-03T15:34:38;16.40;99.90
15617;DHT22;7908;51.688;7.130;2022-10-03T15:37:14;16.40;99.90
15617;DHT22;7908;51.688;7.130;2022-10-03T15:39:46;16.40;99.90
15617;DHT22;7908;51.688;7.130;2022-10-03T15:42:21;16.40;99.90
15617;DHT22;7908;51.688;7.130;2022-10-03T15:44:53;16.40;99.90
15617;DHT22;7908;51.688;7.130;2022-10-03T15:47:26;16.30;99.90
15617;DHT22;7908;51.688;7.130;2022-10-03T15:49:58;16.30;99.90
15617;DHT22;7908;51.688;7.130;2022-10-03T15:52:34;16.30;99.90
15617;DHT22;7908;51.688;7.130;2022-10-03T15:55:14;16.30;99.90
15617;DHT22;7908;51.688;7.130;2022-10-03T15:57:48;16.30;99.90
15617;DHT22;7908;51.688;7.130;2022-10-03T16:00:21;16.20;99.90
15617;DHT22;7908;51.688;7.130;2022-10-03T16:02:59;16.20;99.90
15617;DHT22;7908;51.688;7.130;2022-10-03T16:05:28;16.10;99.90
15617;DHT22;7908;51.688;7.130;2022-10-03T16:08:01;16.10;99.90
15617;DHT22;7908;51.688;7.130;2022-10-03T16:10:36;16.10;99.90
15617;DHT22;7908;51.688;7.130;2022-10-03T16:13:21;16.10;99.90
15617;DHT22;7908;51.688;7.130;2022-10-03T16:16:12;16.10;99.90
15617;DHT22;7908;51.688;7.130;2022-10-03T16:18:55;16.00;99.90
15617;DHT22;7908;51.688;7.130;2022-10-03T16:21:48;16.00;99.90
15617;DHT22;7908;51.688;7.130;2022-10-03T16:24:29;15.90;99.90
15617;DHT22;7908;51.688;7.130;2022-10-03T16:27:11;15.90;99.90
15617;DHT22;7908;51.688;7.130;2022-10-03T16:29:50;15.80;99.90
15617;DHT22;7908;51.688;7.130;2022-10-03T16:32:22;15.80;99.90
15617;DHT22;7908;51.688;7.130;2022-10-03T16:34:56;15.80;99.90
15617;DHT22;7908;51.688;7.130;2022-10-03T16:37:29;15.70;99.90
15617;DHT22;7908;51.688;7.130;2022-10-03T16:40:02;15.70;99.90
15617;DHT22;7908;51.688;7.130;2022-10-03T16:42:40;15.60;99.90
15617;DHT22;7908;51.688;7.130;2022-10-03T16:45:20;15.50;99.90
15617;DHT22;7908;51.688;7.130;2022-10-03T16:47:55;15.40;99.90
15617;DHT22;7908;51.688;7.130;2022-10-03T16:50:45;15.30;99.90
15617;DHT22;7908;51.688;7.130;2022-10-03T16:53:19;15.10;99.90
15617;DHT22;7908;51.688;7.130;2022-10-03T16:55:51;15.00;99.90
15617;DHT22;7908;51.688;7.130;2022-10-03T16:58:29;14.90;99.90
15617;DHT22;7908;51.688;7.130;2022-10-03T17:01:08;14.80;99.90
15617;DHT22;7908;51.688;7.130;2022-10-03T17:04:01;14.70;99.90
15617;DHT22;7908;51.688;7.130;2022-10-03T17:06:37;14.60;99.90
15617;DHT22;7908;51.688;7.130;2022-10-03T17:09:16;14.50;99.90
15617;DHT22;7908;51.688;7.130;2022-10-03T17:11:52;14.40;99.90
15617;DHT22;7908;51.688;7.130;2022-10-03T17:14:25;14.30;99.90
15617;DHT22;7908;51.688;7.130;2022-10-03T17:16:58;14.20;99.90
15617;DHT22;7908;51.688;7.130;2022-10-03T17:19:34;14.10;99.90
15617;DHT22;7908;51.688;7.130;2022-10-03T17:22:09;14.00;99.90
15617;DHT22;7908;51.688;7.130;2022-10-03T17:24:45;13.90;99.90
15617;DHT22;7908;51.688;7.130;2022-10-03T17:27:22;13.80;99.90
15617;DHT22;7908;51.688;7.130;2022-10-03T17:29:56;13.70;99.90
15617;DHT22;7908;51.688;7.130;2022-10-03T17:32:29;13.60;99.90
15617;DHT22;7908;51.688;7.130;2022-10-03T17:35:09;13.50;99.90
15617;DHT22;7908;51.688;7.130;2022-10-03T17:38:03;13.50;99.90
15617;DHT22;7908;51.688;7.130;2022-10-03T17:41:11;13.40;99.90
15617;DHT22;7908;51.688;7.130;2022-10-03T17:43:48;13.30;99.90
15617;DHT22;7908;51.688;7.130;2022-10-03T17:46:33;13.20;99.90
15617;DHT22;7908;51.688;7.130;2022-10-03T17:49:26;13.20;99.90
15617;DHT22;7908;51.688;7.130;2022-10-03T17:52:13;13.10;99.90
15617;DHT22;7908;51.688;7.130;2022-10-03T17:54:45;13.00;99.90
15617;DHT22;7908;51.688;7.130;2022-10-03T17:57:20;13.00;99.90
15617;DHT22;7908;51.688;7.130;2022-10-03T17:59:54;12.90;99.90
15617;DHT22;7908;51.688;7.130;2022-10-03T18:02:34;12.80;99.90
15617;DHT22;7908;51.688;7.130;2022-10-03T18:05:12;12.80;99.90
15617;DHT22;7908;51.688;7.130;2022-10-03T18:07:44;12.70;99.90
15617;DHT22;7908;51.688;7.130;2022-10-03T18:10:21;12.60;99.90
15617;DHT22;7908;51.688;7.130;2022-10-03T18:12:54;12.60;99.90
15617;DHT22;7908;51.688;7.130;2022-10-03T18:15:50;12.60;99.90
15617;DHT22;7908;51.688;7.130;2022-10-03T18:19:08;12.50;99.90
15617;DHT22;7908;51.688;7.130;2022-10-03T18:21:58;12.40;99.90
15617;DHT22;7908;51.688;7.130;2022-10-03T18:24:46;12.30;99.90
15617;DHT22;7908;51.688;7.130;2022-10-03T18:27:50;12.30;99.90
15617;DHT22;7908;51.688;7.130;2022-10-03T18:30:35;12.20;99.90
15617;DHT22;7908;51.688;7.130;2022-10-03T18:33:24;12.10;99.90
15617;DHT22;7908;51.688;7.130;2022-10-03T18:36:08;12.00;99.90
15617;DHT22;7908;51.688;7.130;2022-10-03T18:38:39;11.90;99.90
15617;DHT22;7908;51.688;7.130;2022-10-03T18:41:15;11.80;99.90
15617;DHT22;7908;51.688;7.130;2022-10-03T18:43:51;11.80;99.90
15617;DHT22;7908;51.688;7.130;2022-10-03T18:46:27;11.70;99.90
15617;DHT22;7908;51.688;7.130;2022-10-03T18:49:01;11.70;99.90
15617;DHT22;7908;51.688;7.130;2022-10-03T18:52:02;11.60;99.90
15617;DHT22;7908;51.688;7.130;2022-10-03T18:54:38;11.60;99.90
15617;DHT22;7908;51.688;7.130;2022-10-03T18:57:19;11.50;99.90
15617;DHT22;7908;51.688;7.130;2022-10-03T18:59:54;11.50;99.90
15617;DHT22;7908;51.688;7.130;2022-10-03T19:02:29;11.50;99.90
15617;DHT22;7908;51.688;7.130;2022-10-03T19:05:06;11.50;99.90
15617;DHT22;7908;51.688;7.130;2022-10-03T19:07:47;11.40;99.90
15617;DHT22;7908;51.688;7.130;2022-10-03T19:10:37;11.40;99.90
15617;DHT22;7908;51.688;7.130;2022-10-03T19:13:19;11.30;99.90
15617;DHT22;7908;51.688;7.130;2022-10-03T19:16:14;11.30;99.90
15617;DHT22;7908;51.688;7.130;2022-10-03T19:18:58;11.30;99.90
15617;DHT22;7908;51.688;7.130;2022-10-03T19:21:34;11.20;99.90
15617;DHT22;7908;51.688;7.130;2022-10-03T19:24:13;11.10;99.90
15617;DHT22;7908;51.688;7.130;2022-10-03T19:26:46;11.00;99.90
15617;DHT22;7908;51.688;7.130;2022-10-03T19:29:21;11.00;99.90
15617;DHT22;7908;51.688;7.130;2022-10-03T19:31:59;10.90;99.90
15617;DHT22;7908;51.688;7.130;2022-10-03T19:34:35;10.90;99.90
15617;DHT22;7908;51.688;7.130;2022-10-03T19:37:09;10.90;99.90
15617;DHT22;7908;51.688;7.130;2022-10-03T19:39:40;10.90;99.90
15617;DHT22;7908;51.688;7.130;2022-10-03T19:42:23;10.90;99.90
15617;DHT22;7908;51.688;7.130;2022-10-03T19:44:55;11.00;99.90
15617;DHT22;7908;51.688;7.130;2022-10-03T19:47:29;10.90;99.90
15617;DHT22;7908;51.688;7.130;2022-10-03T19:50:04;10.90;99.90
15617;DHT22;7908;51.688;7.130;2022-10-03T19:52:37;10.90;99.90
15617;DHT22;7908;51.688;7.130;2022-10-03T19:55:14;10.80;99.90
15617;DHT22;7908;51.688;7.130;2022-10-03T19:57:48;10.80;99.90
15617;DHT22;7908;51.688;7.130;2022-10-03T20:00:30;10.80;99.90
15617;DHT22;7908;51.688;7.130;2022-10-03T20:03:12;10.80;99.90
15617;DHT22;7908;51.688;7.130;2022-10-03T20:05:48;10.70;99.90
15617;DHT22;7908;51.688;7.130;2022-10-03T20:08:22;10.60;99.90
15617;DHT22;7908;51.688;7.130;2022-10-03T20:11:19;10.60;99.90
15617;DHT22;7908;51.688;7.130;2022-10-03T20:13:50;10.50;99.90
15617;DHT22;7908;51.688;7.130;2022-10-03T20:16:22;10.40;99.90
15617;DHT22;7908;51.688;7.130;2022-10-03T20:18:54;10.40;99.90
15617;DHT22;7908;51.688;7.130;2022-10-03T20:21:25;10.30;99.90
15617;DHT22;7908;51.688;7.130;2022-10-03T20:23:57;10.30;99.90
15617;DHT22;7908;51.688;7.130;2022-10-03T20:26:33;10.20;99.90
15617;DHT22;7908;51.688;7.130;2022-10-03T20:29:21;10.20;99.90
15617;DHT22;7908;51.688;7.130;2022-10-03T20:31:57;10.20;99.90
15617;DHT22;7908;51.688;7.130;2022-10-03T20:34:28;10.20;99.90
15617;DHT22;7908;51.688;7.130;2022-10-03T20:37:08;10.10;99.90
15617;DHT22;7908;51.688;7.130;2022-10-03T20:39:49;10.10;99.90
15617;DHT22;7908;51.688;7.130;2022-10-03T20:42:22;10.00;99.90
15617;DHT22;7908;51.688;7.130;2022-10-03T20:45:01;9.90;99.90
15617;DHT22;7908;51.688;7.130;2022-10-03T20:47:48;9.80;99.90
15617;DHT22;7908;51.688;7.130;2022-10-03T20:50:23;9.80;99.90